• Join FlightAware (Why Join?)
  • Login
  • US Flag 
06:37PM EST


 

Airport Tracker/Info


-or-


 

Live Flight TrackerFlight Track Log ✈ SWA2353 ✈ 02-May-2013 ✈ KMDW - KSTL

Flight Track Log - Related Links

Times and Time Zones

All times are in EDT time to prevent confusion due to time zone crossing. See the SWA2353 flight status page for this flight to view local times or setup timezone preferences in your user account.

Time Position Orientation Groundspeed Altitude Reporting Facility
EDT Latitude Longitude Course Direction KTS MPH feet Rate Location/Type
09:34PM 41.8000 -87.7000 109° East 216 249 3,000  Level Chicago TRACON
09:36PM 41.6958 -87.6725 169° South 230 265 6,000 2,460 Climbing Chicago Center
09:37PM 41.6281 -87.7564 223° Southwest 277 319 10,400 3,480 Climbing Chicago Center
09:38PM 41.3932 -88.0192 196° South  Level FlightAware Approximate
09:38PM 41.5700 -87.8281 223° Southwest 281 323 13,200  Level Chicago Center
09:39PM 41.5094 -87.9033 223° Southwest 291 335 15,000 1,920 Climbing Chicago Center
09:40PM 41.4419 -87.9850 222° Southwest 316 364 17,200 2,460 Climbing Chicago Center
09:41PM 41.3511 -88.0481 208° Southwest 355 409 20,100 2,820 Climbing Chicago Center
09:42PM 41.2533 -88.0819 195° South 360 414 23,000 2,520 Climbing Chicago Center
09:43PM 41.1511 -88.0956 186° South 370 426 25,400 1,440 Climbing Chicago Center
09:44PM 41.0433 -88.1089 185° South 386 444 26,000 240 Climbing Chicago Center
09:45PM 40.9369 -88.1206 185° South 387 445 26,000  Level Chicago Center
09:46PM 40.8086 -88.1358 185° South 387 445 26,000  Level Chicago Center
09:47PM 40.7036 -88.1478 185° South 384 442 26,000  Level Chicago Center
09:48PM 40.5978 -88.1611 185° South 384 442 26,000  Level Chicago Center
09:49PM 40.4925 -88.1758 186° South 382 440 26,000  Level Chicago Center
09:50PM 40.3867 -88.1867 184° South 383 441 26,000  Level Chicago Center
09:51PM 40.2661 -88.2414 199° South 392 451 26,000  Level Chicago Center
09:52PM 40.1922 -88.3039 213° Southwest 387 445 26,000  Level Chicago Center
09:53PM 40.0911 -88.4156 220° Southwest 393 452 26,000  Level Chicago Center
09:54PM 40.0236 -88.4903 220° Southwest 395 455 26,000  Level Kansas City Center
09:55PM 39.9356 -88.5869 220° Southwest 403 464 26,000  Level Kansas City Center
09:56PM 39.8506 -88.6794 220° Southwest 401 461 26,000  Level Kansas City Center
09:57PM 39.7656 -88.7703 219° Southwest 396 456 26,000  Level Kansas City Center
09:58PM 39.6811 -88.8617 220° Southwest 395 455 26,000  Level Kansas City Center
09:59PM 39.5972 -88.9533 220° Southwest 395 455 26,000  Level Kansas City Center
10:00PM 39.5128 -89.0433 219° Southwest 393 452 26,000 -900 Level Kansas City Center
10:01PM 39.4286 -89.1336 220° Southwest 392 451 24,200 -1,980 Descending Kansas City Center
10:02PM 39.3475 -89.2217 220° Southwest 381 438 22,000 -2,100 Descending Kansas City Center
10:03PM 39.2681 -89.3050 219° Southwest 373 429 19,900 -2,160 Descending Kansas City Center
10:04PM 39.1761 -89.4031 220° Southwest 365 420 17,700 -2,040 Descending Kansas City Center
10:05PM 39.1019 -89.4808 219° Southwest 345 397 15,800 -2,040 Descending Kansas City Center
10:06PM 39.0308 -89.5575 220° Southwest 335 386 13,600 -2,400 Descending Kansas City Center
10:07PM 38.9594 -89.6392 222° Southwest 319 367 11,000 -1,800 Descending Kansas City Center
10:08PM 38.9044 -89.7097 225° Southwest 309 356 10,000 -840 Descending Kansas City Center
10:09PM 38.8519 -89.7747 224° Southwest 285 328 9,400 -900 Descending Kansas City Center
10:10PM 38.8031 -89.8386 226° Southwest 264 304 8,200 -1,320 Descending Kansas City Center
10:11PM 38.7525 -89.9006 224° Southwest 256 295 6,800 -1,440 Descending Kansas City Center
10:12PM 38.7011 -89.9672 225° Southwest 257 296 5,300 -1,500 Descending Kansas City Center
10:13PM 38.6683 -90.0500 243° Southwest 269 310 3,800 -960 Descending Kansas City Center
10:15PM 38.6553 -90.1339 259° West 251 289 3,400 -780 Descending Kansas City Center
10:16PM 38.6769 -90.2150 289° West 212 244 2,300 -720 Descending Kansas City Center
10:17PM 38.7006 -90.2628 302° West 178 205 2,000 -540 Descending Kansas City Center
10:18PM 38.7194 -90.3014 302° West 150 173 1,300 -660 Descending Kansas City Center
10:19PM 38.7381 -90.3372 304° West 132 152 700 -600 Descending Kansas City Center